sensor_id;sensor_type;location;lat;lon;timestamp;P1;durP1;ratioP1;P2;durP2;ratioP2
4835;SDS011;66719;51.226;6.902;2024-01-06T00:00:09;19.63;;;10.63;;
4835;SDS011;66719;51.226;6.902;2024-01-06T00:02:36;16.70;;;10.33;;
4835;SDS011;66719;51.226;6.902;2024-01-06T00:05:02;18.10;;;11.57;;
4835;SDS011;66719;51.226;6.902;2024-01-06T00:07:29;20.27;;;11.73;;
4835;SDS011;66719;51.226;6.902;2024-01-06T00:09:56;20.57;;;11.60;;
4835;SDS011;66719;51.226;6.902;2024-01-06T00:12:22;18.73;;;11.67;;
4835;SDS011;66719;51.226;6.902;2024-01-06T00:14:49;24.90;;;13.93;;
4835;SDS011;66719;51.226;6.902;2024-01-06T00:17:15;19.97;;;11.47;;
4835;SDS011;66719;51.226;6.902;2024-01-06T00:19:43;19.43;;;11.60;;
4835;SDS011;66719;51.226;6.902;2024-01-06T00:22:09;21.07;;;11.83;;
4835;SDS011;66719;51.226;6.902;2024-01-06T00:24:36;19.83;;;12.63;;
4835;SDS011;66719;51.226;6.902;2024-01-06T00:27:03;19.10;;;12.10;;
4835;SDS011;66719;51.226;6.902;2024-01-06T00:29:29;22.87;;;13.57;;
4835;SDS011;66719;51.226;6.902;2024-01-06T00:31:56;22.87;;;12.80;;
4835;SDS011;66719;51.226;6.902;2024-01-06T00:34:22;19.10;;;13.00;;
4835;SDS011;66719;51.226;6.902;2024-01-06T00:36:49;19.40;;;13.23;;
4835;SDS011;66719;51.226;6.902;2024-01-06T00:39:15;20.50;;;13.63;;
4835;SDS011;66719;51.226;6.902;2024-01-06T00:41:42;18.67;;;12.00;;
4835;SDS011;66719;51.226;6.902;2024-01-06T00:44:08;21.27;;;14.03;;
4835;SDS011;66719;51.226;6.902;2024-01-06T00:46:35;22.23;;;13.87;;
4835;SDS011;66719;51.226;6.902;2024-01-06T00:49:02;24.80;;;13.10;;
4835;SDS011;66719;51.226;6.902;2024-01-06T00:51:28;24.30;;;13.57;;
4835;SDS011;66719;51.226;6.902;2024-01-06T00:53:55;21.73;;;13.97;;
4835;SDS011;66719;51.226;6.902;2024-01-06T00:56:23;20.77;;;13.73;;
4835;SDS011;66719;51.226;6.902;2024-01-06T00:58:49;21.23;;;13.80;;
4835;SDS011;66719;51.226;6.902;2024-01-06T01:01:16;26.50;;;14.93;;
4835;SDS011;66719;51.226;6.902;2024-01-06T01:03:42;25.57;;;14.57;;
4835;SDS011;66719;51.226;6.902;2024-01-06T01:06:09;23.93;;;13.20;;
4835;SDS011;66719;51.226;6.902;2024-01-06T01:08:36;23.33;;;14.30;;
4835;SDS011;66719;51.226;6.902;2024-01-06T01:11:02;23.03;;;14.53;;
4835;SDS011;66719;51.226;6.902;2024-01-06T01:13:29;25.73;;;14.57;;
4835;SDS011;66719;51.226;6.902;2024-01-06T01:15:55;26.63;;;15.13;;
4835;SDS011;66719;51.226;6.902;2024-01-06T01:18:22;25.20;;;14.20;;
4835;SDS011;66719;51.226;6.902;2024-01-06T01:20:49;26.23;;;14.97;;
4835;SDS011;66719;51.226;6.902;2024-01-06T01:23:15;21.53;;;14.67;;
4835;SDS011;66719;51.226;6.902;2024-01-06T01:25:42;25.57;;;15.20;;
4835;SDS011;66719;51.226;6.902;2024-01-06T01:28:08;27.60;;;16.03;;
4835;SDS011;66719;51.226;6.902;2024-01-06T01:30:35;26.13;;;16.20;;
4835;SDS011;66719;51.226;6.902;2024-01-06T01:33:02;25.83;;;15.27;;
4835;SDS011;66719;51.226;6.902;2024-01-06T01:35:29;24.60;;;16.17;;
4835;SDS011;66719;51.226;6.902;2024-01-06T01:37:55;24.50;;;16.10;;
4835;SDS011;66719;51.226;6.902;2024-01-06T01:40:22;27.17;;;15.40;;
4835;SDS011;66719;51.226;6.902;2024-01-06T01:42:48;24.57;;;16.47;;
4835;SDS011;66719;51.226;6.902;2024-01-06T01:45:15;26.90;;;15.07;;
4835;SDS011;66719;51.226;6.902;2024-01-06T01:47:41;25.27;;;16.07;;
4835;SDS011;66719;51.226;6.902;2024-01-06T01:50:08;23.97;;;15.70;;
4835;SDS011;66719;51.226;6.902;2024-01-06T01:52:40;26.97;;;15.60;;
4835;SDS011;66719;51.226;6.902;2024-01-06T01:55:08;27.27;;;17.77;;
4835;SDS011;66719;51.226;6.902;2024-01-06T01:57:35;28.70;;;17.40;;
4835;SDS011;66719;51.226;6.902;2024-01-06T02:00:02;29.53;;;17.83;;
4835;SDS011;66719;51.226;6.902;2024-01-06T02:02:29;27.40;;;16.70;;
4835;SDS011;66719;51.226;6.902;2024-01-06T02:04:56;27.93;;;15.13;;
4835;SDS011;66719;51.226;6.902;2024-01-06T02:07:22;28.87;;;16.17;;
4835;SDS011;66719;51.226;6.902;2024-01-06T02:09:49;25.60;;;15.20;;
4835;SDS011;66719;51.226;6.902;2024-01-06T02:12:16;25.57;;;15.67;;
4835;SDS011;66719;51.226;6.902;2024-01-06T02:14:42;24.40;;;15.80;;
4835;SDS011;66719;51.226;6.902;2024-01-06T02:17:09;26.43;;;16.20;;
4835;SDS011;66719;51.226;6.902;2024-01-06T02:19:36;25.40;;;16.10;;
4835;SDS011;66719;51.226;6.902;2024-01-06T02:22:03;28.80;;;15.90;;
4835;SDS011;66719;51.226;6.902;2024-01-06T02:24:29;31.03;;;17.50;;
4835;SDS011;66719;51.226;6.902;2024-01-06T02:26:56;24.40;;;16.30;;
4835;SDS011;66719;51.226;6.902;2024-01-06T02:29:22;27.87;;;16.77;;
4835;SDS011;66719;51.226;6.902;2024-01-06T02:31:49;25.70;;;16.60;;
4835;SDS011;66719;51.226;6.902;2024-01-06T02:34:16;29.57;;;18.23;;
4835;SDS011;66719;51.226;6.902;2024-01-06T02:36:42;27.37;;;17.67;;
4835;SDS011;66719;51.226;6.902;2024-01-06T02:39:09;26.30;;;16.60;;
4835;SDS011;66719;51.226;6.902;2024-01-06T02:41:36;27.37;;;17.50;;
4835;SDS011;66719;51.226;6.902;2024-01-06T02:44:03;28.90;;;18.30;;
4835;SDS011;66719;51.226;6.902;2024-01-06T02:46:30;26.43;;;17.57;;
4835;SDS011;66719;51.226;6.902;2024-01-06T02:48:56;30.23;;;18.40;;
4835;SDS011;66719;51.226;6.902;2024-01-06T02:51:23;30.87;;;18.50;;
4835;SDS011;66719;51.226;6.902;2024-01-06T02:53:50;26.57;;;17.80;;
4835;SDS011;66719;51.226;6.902;2024-01-06T02:56:16;29.10;;;18.57;;
4835;SDS011;66719;51.226;6.902;2024-01-06T02:58:43;26.50;;;17.17;;
4835;SDS011;66719;51.226;6.902;2024-01-06T03:01:10;27.60;;;17.17;;
4835;SDS011;66719;51.226;6.902;2024-01-06T03:03:37;27.83;;;17.00;;
4835;SDS011;66719;51.226;6.902;2024-01-06T03:06:04;25.20;;;16.10;;
4835;SDS011;66719;51.226;6.902;2024-01-06T03:08:31;30.93;;;18.00;;
4835;SDS011;66719;51.226;6.902;2024-01-06T03:10:57;31.57;;;18.70;;
4835;SDS011;66719;51.226;6.902;2024-01-06T03:13:24;33.07;;;19.30;;
4835;SDS011;66719;51.226;6.902;2024-01-06T03:15:50;27.20;;;18.20;;
4835;SDS011;66719;51.226;6.902;2024-01-06T03:18:17;29.80;;;17.43;;
4835;SDS011;66719;51.226;6.902;2024-01-06T03:20:44;32.10;;;18.90;;
4835;SDS011;66719;51.226;6.902;2024-01-06T03:23:10;30.80;;;19.30;;
4835;SDS011;66719;51.226;6.902;2024-01-06T03:25:37;29.93;;;18.63;;
4835;SDS011;66719;51.226;6.902;2024-01-06T03:28:03;29.30;;;19.03;;
4835;SDS011;66719;51.226;6.902;2024-01-06T03:30:30;33.90;;;20.27;;
4835;SDS011;66719;51.226;6.902;2024-01-06T03:32:57;30.30;;;18.70;;
4835;SDS011;66719;51.226;6.902;2024-01-06T03:35:24;31.10;;;18.90;;
4835;SDS011;66719;51.226;6.902;2024-01-06T03:37:50;35.50;;;19.77;;
4835;SDS011;66719;51.226;6.902;2024-01-06T03:40:17;34.13;;;20.60;;
4835;SDS011;66719;51.226;6.902;2024-01-06T03:42:44;37.43;;;22.40;;
4835;SDS011;66719;51.226;6.902;2024-01-06T03:45:10;39.27;;;21.20;;
4835;SDS011;66719;51.226;6.902;2024-01-06T03:47:37;31.50;;;20.90;;
4835;SDS011;66719;51.226;6.902;2024-01-06T03:50:04;33.40;;;21.40;;
4835;SDS011;66719;51.226;6.902;2024-01-06T03:52:30;34.00;;;21.40;;
4835;SDS011;66719;51.226;6.902;2024-01-06T03:54:57;40.37;;;24.07;;
4835;SDS011;66719;51.226;6.902;2024-01-06T03:57:23;34.40;;;22.17;;
4835;SDS011;66719;51.226;6.902;2024-01-06T03:59:50;30.00;;;20.10;;
4835;SDS011;66719;51.226;6.902;2024-01-06T04:02:17;36.60;;;21.50;;
4835;SDS011;66719;51.226;6.902;2024-01-06T04:04:43;35.47;;;21.33;;
4835;SDS011;66719;51.226;6.902;2024-01-06T04:07:10;35.23;;;22.83;;
4835;SDS011;66719;51.226;6.902;2024-01-06T04:09:36;36.20;;;23.53;;
4835;SDS011;66719;51.226;6.902;2024-01-06T04:12:03;36.83;;;23.23;;
4835;SDS011;66719;51.226;6.902;2024-01-06T04:14:29;38.40;;;24.00;;
4835;SDS011;66719;51.226;6.902;2024-01-06T04:16:56;31.27;;;20.40;;
4835;SDS011;66719;51.226;6.902;2024-01-06T04:19:23;32.40;;;19.80;;
4835;SDS011;66719;51.226;6.902;2024-01-06T04:21:50;29.80;;;18.47;;
4835;SDS011;66719;51.226;6.902;2024-01-06T04:24:17;30.13;;;18.37;;
4835;SDS011;66719;51.226;6.902;2024-01-06T04:26:44;30.80;;;17.67;;
4835;SDS011;66719;51.226;6.902;2024-01-06T04:29:11;30.43;;;17.07;;
4835;SDS011;66719;51.226;6.902;2024-01-06T04:31:38;29.90;;;16.30;;
4835;SDS011;66719;51.226;6.902;2024-01-06T04:34:06;30.93;;;16.47;;
4835;SDS011;66719;51.226;6.902;2024-01-06T04:36:32;28.20;;;16.43;;
4835;SDS011;66719;51.226;6.902;2024-01-06T04:38:59;26.77;;;15.00;;
4835;SDS011;66719;51.226;6.902;2024-01-06T04:41:25;30.50;;;16.37;;
4835;SDS011;66719;51.226;6.902;2024-01-06T04:43:52;25.43;;;14.33;;
4835;SDS011;66719;51.226;6.902;2024-01-06T04:46:18;33.20;;;15.97;;
4835;SDS011;66719;51.226;6.902;2024-01-06T04:48:45;27.27;;;14.87;;
4835;SDS011;66719;51.226;6.902;2024-01-06T04:51:13;26.27;;;14.67;;
4835;SDS011;66719;51.226;6.902;2024-01-06T04:53:40;24.30;;;13.17;;
4835;SDS011;66719;51.226;6.902;2024-01-06T04:56:06;23.90;;;12.97;;
4835;SDS011;66719;51.226;6.902;2024-01-06T04:58:33;26.37;;;14.97;;
4835;SDS011;66719;51.226;6.902;2024-01-06T05:01:00;25.70;;;14.13;;
4835;SDS011;66719;51.226;6.902;2024-01-06T05:03:28;25.10;;;13.73;;
4835;SDS011;66719;51.226;6.902;2024-01-06T05:05:55;28.33;;;14.20;;
4835;SDS011;66719;51.226;6.902;2024-01-06T05:08:22;23.90;;;13.77;;
4835;SDS011;66719;51.226;6.902;2024-01-06T05:10:49;24.57;;;13.53;;
4835;SDS011;66719;51.226;6.902;2024-01-06T05:13:17;32.07;;;15.93;;
4835;SDS011;66719;51.226;6.902;2024-01-06T05:15:43;25.97;;;13.50;;
4835;SDS011;66719;51.226;6.902;2024-01-06T05:18:10;29.83;;;14.40;;
4835;SDS011;66719;51.226;6.902;2024-01-06T05:20:37;26.83;;;14.20;;
4835;SDS011;66719;51.226;6.902;2024-01-06T05:23:03;27.47;;;14.43;;
4835;SDS011;66719;51.226;6.902;2024-01-06T05:25:30;28.97;;;14.23;;
4835;SDS011;66719;51.226;6.902;2024-01-06T05:27:56;26.50;;;13.20;;
4835;SDS011;66719;51.226;6.902;2024-01-06T05:30:23;26.00;;;13.13;;
4835;SDS011;66719;51.226;6.902;2024-01-06T05:32:50;28.97;;;14.47;;
4835;SDS011;66719;51.226;6.902;2024-01-06T05:35:17;25.40;;;13.47;;
4835;SDS011;66719;51.226;6.902;2024-01-06T05:37:43;27.33;;;13.07;;
4835;SDS011;66719;51.226;6.902;2024-01-06T05:40:10;22.87;;;12.00;;
4835;SDS011;66719;51.226;6.902;2024-01-06T05:42:37;23.60;;;11.80;;
4835;SDS011;66719;51.226;6.902;2024-01-06T05:45:04;23.50;;;11.97;;
4835;SDS011;66719;51.226;6.902;2024-01-06T05:47:31;19.30;;;10.97;;
4835;SDS011;66719;51.226;6.902;2024-01-06T05:49:59;23.40;;;11.57;;
4835;SDS011;66719;51.226;6.902;2024-01-06T05:52:25;20.20;;;10.73;;
4835;SDS011;66719;51.226;6.902;2024-01-06T05:54:52;23.70;;;11.77;;
4835;SDS011;66719;51.226;6.902;2024-01-06T05:57:18;21.43;;;10.80;;
4835;SDS011;66719;51.226;6.902;2024-01-06T05:59:45;19.37;;;9.27;;
4835;SDS011;66719;51.226;6.902;2024-01-06T06:02:12;18.77;;;9.87;;
4835;SDS011;66719;51.226;6.902;2024-01-06T06:04:38;19.07;;;10.43;;
4835;SDS011;66719;51.226;6.902;2024-01-06T06:07:05;21.23;;;9.40;;
4835;SDS011;66719;51.226;6.902;2024-01-06T06:09:32;18.37;;;8.87;;
4835;SDS011;66719;51.226;6.902;2024-01-06T06:12:01;19.70;;;9.80;;
4835;SDS011;66719;51.226;6.902;2024-01-06T06:14:27;17.20;;;9.13;;
4835;SDS011;66719;51.226;6.902;2024-01-06T06:16:55;17.80;;;9.43;;
4835;SDS011;66719;51.226;6.902;2024-01-06T06:19:23;20.07;;;10.20;;
4835;SDS011;66719;51.226;6.902;2024-01-06T06:21:50;17.63;;;9.20;;
4835;SDS011;66719;51.226;6.902;2024-01-06T06:24:16;17.80;;;8.60;;
4835;SDS011;66719;51.226;6.902;2024-01-06T06:26:43;19.73;;;9.57;;
4835;SDS011;66719;51.226;6.902;2024-01-06T06:29:09;17.30;;;9.53;;
4835;SDS011;66719;51.226;6.902;2024-01-06T06:31:36;18.43;;;10.43;;
4835;SDS011;66719;51.226;6.902;2024-01-06T06:34:03;20.90;;;10.80;;
4835;SDS011;66719;51.226;6.902;2024-01-06T06:36:34;19.73;;;10.17;;
4835;SDS011;66719;51.226;6.902;2024-01-06T06:39:01;19.93;;;10.60;;
4835;SDS011;66719;51.226;6.902;2024-01-06T06:41:30;18.20;;;9.90;;
4835;SDS011;66719;51.226;6.902;2024-01-06T06:43:57;19.33;;;9.87;;
4835;SDS011;66719;51.226;6.902;2024-01-06T06:46:23;20.93;;;10.83;;
4835;SDS011;66719;51.226;6.902;2024-01-06T06:48:50;22.20;;;10.97;;
4835;SDS011;66719;51.226;6.902;2024-01-06T06:51:17;26.77;;;11.60;;
4835;SDS011;66719;51.226;6.902;2024-01-06T06:53:43;21.20;;;11.93;;
4835;SDS011;66719;51.226;6.902;2024-01-06T06:56:12;22.97;;;11.40;;
4835;SDS011;66719;51.226;6.902;2024-01-06T06:58:40;23.23;;;12.47;;
4835;SDS011;66719;51.226;6.902;2024-01-06T07:01:07;22.87;;;11.30;;
4835;SDS011;66719;51.226;6.902;2024-01-06T07:03:33;26.57;;;11.50;;
4835;SDS011;66719;51.226;6.902;2024-01-06T07:06:00;21.37;;;11.53;;
4835;SDS011;66719;51.226;6.902;2024-01-06T07:08:27;23.40;;;12.87;;
4835;SDS011;66719;51.226;6.902;2024-01-06T07:10:53;23.57;;;11.63;;
4835;SDS011;66719;51.226;6.902;2024-01-06T07:13:20;22.43;;;12.40;;
4835;SDS011;66719;51.226;6.902;2024-01-06T07:15:47;25.93;;;13.33;;
4835;SDS011;66719;51.226;6.902;2024-01-06T07:18:14;23.57;;;13.13;;
4835;SDS011;66719;51.226;6.902;2024-01-06T07:20:41;23.60;;;12.67;;
4835;SDS011;66719;51.226;6.902;2024-01-06T07:23:08;25.63;;;14.00;;
4835;SDS011;66719;51.226;6.902;2024-01-06T07:25:34;25.70;;;13.50;;
4835;SDS011;66719;51.226;6.902;2024-01-06T07:28:01;23.87;;;13.33;;
4835;SDS011;66719;51.226;6.902;2024-01-06T07:30:28;25.33;;;13.80;;
4835;SDS011;66719;51.226;6.902;2024-01-06T07:32:55;23.33;;;13.47;;
4835;SDS011;66719;51.226;6.902;2024-01-06T07:35:22;26.37;;;14.93;;
4835;SDS011;66719;51.226;6.902;2024-01-06T07:37:48;26.20;;;12.80;;
4835;SDS011;66719;51.226;6.902;2024-01-06T07:40:15;22.20;;;12.70;;
4835;SDS011;66719;51.226;6.902;2024-01-06T07:42:43;24.07;;;14.00;;
4835;SDS011;66719;51.226;6.902;2024-01-06T07:45:10;32.40;;;14.30;;
4835;SDS011;66719;51.226;6.902;2024-01-06T07:47:37;24.60;;;13.53;;
4835;SDS011;66719;51.226;6.902;2024-01-06T07:50:05;24.40;;;13.83;;
4835;SDS011;66719;51.226;6.902;2024-01-06T07:52:32;24.30;;;12.97;;
4835;SDS011;66719;51.226;6.902;2024-01-06T07:54:59;28.17;;;15.10;;
4835;SDS011;66719;51.226;6.902;2024-01-06T07:57:26;28.13;;;14.87;;
4835;SDS011;66719;51.226;6.902;2024-01-06T07:59:52;27.17;;;14.80;;
4835;SDS011;66719;51.226;6.902;2024-01-06T08:02:19;22.03;;;12.67;;
4835;SDS011;66719;51.226;6.902;2024-01-06T08:04:45;25.33;;;14.57;;
4835;SDS011;66719;51.226;6.902;2024-01-06T08:07:15;24.47;;;12.33;;
4835;SDS011;66719;51.226;6.902;2024-01-06T08:09:42;24.07;;;13.63;;
4835;SDS011;66719;51.226;6.902;2024-01-06T08:12:09;24.77;;;13.50;;
4835;SDS011;66719;51.226;6.902;2024-01-06T08:14:52;22.80;;;13.10;;
4835;SDS011;66719;51.226;6.902;2024-01-06T08:17:19;21.87;;;12.77;;
4835;SDS011;66719;51.226;6.902;2024-01-06T08:19:45;23.50;;;13.03;;
4835;SDS011;66719;51.226;6.902;2024-01-06T08:22:14;22.20;;;12.97;;
4835;SDS011;66719;51.226;6.902;2024-01-06T08:24:40;24.30;;;13.37;;
4835;SDS011;66719;51.226;6.902;2024-01-06T08:27:07;25.73;;;13.50;;
4835;SDS011;66719;51.226;6.902;2024-01-06T08:29:33;25.63;;;14.10;;
4835;SDS011;66719;51.226;6.902;2024-01-06T08:32:00;23.67;;;13.37;;
4835;SDS011;66719;51.226;6.902;2024-01-06T08:34:27;23.47;;;13.20;;
4835;SDS011;66719;51.226;6.902;2024-01-06T08:36:58;25.63;;;13.70;;
4835;SDS011;66719;51.226;6.902;2024-01-06T08:39:25;25.73;;;13.00;;
4835;SDS011;66719;51.226;6.902;2024-01-06T08:41:51;24.80;;;12.87;;
4835;SDS011;66719;51.226;6.902;2024-01-06T08:44:18;24.43;;;13.07;;
4835;SDS011;66719;51.226;6.902;2024-01-06T08:46:44;25.70;;;13.60;;
4835;SDS011;66719;51.226;6.902;2024-01-06T08:49:11;25.83;;;13.47;;
4835;SDS011;66719;51.226;6.902;2024-01-06T08:51:37;24.27;;;12.90;;
4835;SDS011;66719;51.226;6.902;2024-01-06T08:54:04;25.80;;;13.33;;
4835;SDS011;66719;51.226;6.902;2024-01-06T08:56:32;25.47;;;13.10;;
4835;SDS011;66719;51.226;6.902;2024-01-06T08:59:00;25.90;;;13.07;;
4835;SDS011;66719;51.226;6.902;2024-01-06T09:01:26;20.10;;;10.30;;
4835;SDS011;66719;51.226;6.902;2024-01-06T09:03:53;24.40;;;11.97;;
4835;SDS011;66719;51.226;6.902;2024-01-06T09:06:20;24.50;;;12.10;;
4835;SDS011;66719;51.226;6.902;2024-01-06T09:08:46;21.77;;;12.20;;
4835;SDS011;66719;51.226;6.902;2024-01-06T09:11:13;24.50;;;11.47;;
4835;SDS011;66719;51.226;6.902;2024-01-06T09:13:39;24.00;;;11.40;;
4835;SDS011;66719;51.226;6.902;2024-01-06T09:16:06;24.30;;;11.50;;
4835;SDS011;66719;51.226;6.902;2024-01-06T09:18:32;24.50;;;13.03;;
4835;SDS011;66719;51.226;6.902;2024-01-06T09:20:59;26.77;;;13.60;;
4835;SDS011;66719;51.226;6.902;2024-01-06T09:23:26;31.40;;;13.80;;
4835;SDS011;66719;51.226;6.902;2024-01-06T09:25:52;30.90;;;15.90;;
4835;SDS011;66719;51.226;6.902;2024-01-06T09:28:19;31.63;;;16.50;;
4835;SDS011;66719;51.226;6.902;2024-01-06T09:30:47;32.27;;;17.23;;
4835;SDS011;66719;51.226;6.902;2024-01-06T09:33:14;33.30;;;17.83;;
4835;SDS011;66719;51.226;6.902;2024-01-06T09:35:42;39.07;;;20.60;;
4835;SDS011;66719;51.226;6.902;2024-01-06T09:38:10;37.23;;;18.87;;
4835;SDS011;66719;51.226;6.902;2024-01-06T09:40:40;37.43;;;19.00;;
4835;SDS011;66719;51.226;6.902;2024-01-06T09:43:10;38.07;;;19.30;;
4835;SDS011;66719;51.226;6.902;2024-01-06T09:45:40;34.00;;;18.80;;
4835;SDS011;66719;51.226;6.902;2024-01-06T09:48:11;38.77;;;20.47;;
4835;SDS011;66719;51.226;6.902;2024-01-06T09:50:42;42.97;;;23.20;;
4835;SDS011;66719;51.226;6.902;2024-01-06T09:53:11;46.53;;;24.07;;
4835;SDS011;66719;51.226;6.902;2024-01-06T09:55:37;43.17;;;23.50;;
4835;SDS011;66719;51.226;6.902;2024-01-06T09:58:04;45.10;;;24.40;;
4835;SDS011;66719;51.226;6.902;2024-01-06T10:00:33;42.90;;;23.17;;
4835;SDS011;66719;51.226;6.902;2024-01-06T10:03:00;46.00;;;24.87;;
4835;SDS011;66719;51.226;6.902;2024-01-06T10:05:26;50.37;;;24.07;;
4835;SDS011;66719;51.226;6.902;2024-01-06T10:07:53;51.20;;;27.10;;
4835;SDS011;66719;51.226;6.902;2024-01-06T10:10:19;44.70;;;23.60;;
4835;SDS011;66719;51.226;6.902;2024-01-06T10:12:48;44.30;;;23.77;;
4835;SDS011;66719;51.226;6.902;2024-01-06T10:15:19;44.90;;;23.23;;
4835;SDS011;66719;51.226;6.902;2024-01-06T10:17:46;48.40;;;22.10;;
4835;SDS011;66719;51.226;6.902;2024-01-06T10:20:13;46.20;;;23.80;;
4835;SDS011;66719;51.226;6.902;2024-01-06T10:22:41;51.60;;;25.63;;
4835;SDS011;66719;51.226;6.902;2024-01-06T10:25:09;56.43;;;27.70;;
4835;SDS011;66719;51.226;6.902;2024-01-06T10:27:37;61.10;;;31.07;;
4835;SDS011;66719;51.226;6.902;2024-01-06T10:30:05;62.33;;;29.33;;
4835;SDS011;66719;51.226;6.902;2024-01-06T10:32:33;65.90;;;30.83;;
4835;SDS011;66719;51.226;6.902;2024-01-06T10:35:00;69.27;;;31.17;;
4835;SDS011;66719;51.226;6.902;2024-01-06T10:37:27;64.67;;;30.67;;
4835;SDS011;66719;51.226;6.902;2024-01-06T10:40:07;66.27;;;31.60;;
4835;SDS011;66719;51.226;6.902;2024-01-06T10:42:35;74.20;;;33.70;;
4835;SDS011;66719;51.226;6.902;2024-01-06T10:45:04;75.73;;;32.63;;
4835;SDS011;66719;51.226;6.902;2024-01-06T10:47:34;67.70;;;31.30;;
4835;SDS011;66719;51.226;6.902;2024-01-06T10:50:02;66.97;;;30.30;;
4835;SDS011;66719;51.226;6.902;2024-01-06T10:52:30;62.00;;;30.53;;
4835;SDS011;66719;51.226;6.902;2024-01-06T10:54:57;67.63;;;29.80;;
4835;SDS011;66719;51.226;6.902;2024-01-06T10:57:24;50.07;;;25.87;;
4835;SDS011;66719;51.226;6.902;2024-01-06T10:59:52;57.17;;;26.17;;
4835;SDS011;66719;51.226;6.902;2024-01-06T11:02:19;50.87;;;24.00;;
4835;SDS011;66719;51.226;6.902;2024-01-06T11:04:46;48.63;;;25.20;;
4835;SDS011;66719;51.226;6.902;2024-01-06T11:07:15;43.47;;;23.10;;
4835;SDS011;66719;51.226;6.902;2024-01-06T11:09:47;47.17;;;24.27;;
4835;SDS011;66719;51.226;6.902;2024-01-06T11:12:19;47.20;;;24.07;;
4835;SDS011;66719;51.226;6.902;2024-01-06T11:14:46;44.03;;;22.17;;
4835;SDS011;66719;51.226;6.902;2024-01-06T11:17:13;43.40;;;23.47;;
4835;SDS011;66719;51.226;6.902;2024-01-06T11:20:08;43.90;;;21.13;;
4835;SDS011;66719;51.226;6.902;2024-01-06T11:22:35;43.33;;;22.70;;
4835;SDS011;66719;51.226;6.902;2024-01-06T11:25:06;46.20;;;24.90;;
4835;SDS011;66719;51.226;6.902;2024-01-06T11:27:35;51.27;;;25.53;;
4835;SDS011;66719;51.226;6.902;2024-01-06T11:30:03;54.50;;;29.03;;
4835;SDS011;66719;51.226;6.902;2024-01-06T11:32:33;58.83;;;28.63;;
4835;SDS011;66719;51.226;6.902;2024-01-06T11:35:10;54.33;;;28.17;;
4835;SDS011;66719;51.226;6.902;2024-01-06T11:37:50;56.00;;;28.40;;
4835;SDS011;66719;51.226;6.902;2024-01-06T11:42:48;54.27;;;26.03;;
4835;SDS011;66719;51.226;6.902;2024-01-06T11:45:24;43.50;;;23.40;;
4835;SDS011;66719;51.226;6.902;2024-01-06T11:47:54;40.03;;;21.07;;
4835;SDS011;66719;51.226;6.902;2024-01-06T11:50:29;34.47;;;17.07;;
4835;SDS011;66719;51.226;6.902;2024-01-06T11:52:58;34.83;;;17.17;;
4835;SDS011;66719;51.226;6.902;2024-01-06T11:55:29;34.53;;;17.50;;
4835;SDS011;66719;51.226;6.902;2024-01-06T11:57:58;29.57;;;14.63;;
4835;SDS011;66719;51.226;6.902;2024-01-06T12:00:29;26.37;;;13.60;;
4835;SDS011;66719;51.226;6.902;2024-01-06T12:02:57;31.20;;;13.83;;
4835;SDS011;66719;51.226;6.902;2024-01-06T12:05:24;25.57;;;12.60;;
4835;SDS011;66719;51.226;6.902;2024-01-06T12:07:59;23.43;;;13.37;;
4835;SDS011;66719;51.226;6.902;2024-01-06T12:10:28;27.90;;;14.00;;
4835;SDS011;66719;51.226;6.902;2024-01-06T12:15:22;31.67;;;15.70;;
4835;SDS011;66719;51.226;6.902;2024-01-06T12:17:49;31.37;;;15.70;;
4835;SDS011;66719;51.226;6.902;2024-01-06T12:20:16;27.30;;;15.40;;
4835;SDS011;66719;51.226;6.902;2024-01-06T12:22:43;32.77;;;16.60;;
4835;SDS011;66719;51.226;6.902;2024-01-06T12:25:10;35.07;;;17.40;;
4835;SDS011;66719;51.226;6.902;2024-01-06T12:27:41;35.57;;;17.30;;
4835;SDS011;66719;51.226;6.902;2024-01-06T12:30:12;31.00;;;17.10;;
4835;SDS011;66719;51.226;6.902;2024-01-06T12:32:43;32.33;;;18.93;;
4835;SDS011;66719;51.226;6.902;2024-01-06T12:35:11;36.00;;;20.27;;
4835;SDS011;66719;51.226;6.902;2024-01-06T12:37:38;37.90;;;21.40;;
4835;SDS011;66719;51.226;6.902;2024-01-06T12:40:14;39.53;;;22.37;;
4835;SDS011;66719;51.226;6.902;2024-01-06T12:42:43;38.73;;;21.50;;
4835;SDS011;66719;51.226;6.902;2024-01-06T12:45:11;40.60;;;20.97;;
4835;SDS011;66719;51.226;6.902;2024-01-06T12:47:39;41.10;;;22.23;;
4835;SDS011;66719;51.226;6.902;2024-01-06T12:50:07;40.57;;;20.43;;
4835;SDS011;66719;51.226;6.902;2024-01-06T12:52:34;37.50;;;20.30;;
4835;SDS011;66719;51.226;6.902;2024-01-06T12:55:01;41.00;;;21.30;;
4835;SDS011;66719;51.226;6.902;2024-01-06T12:57:30;42.67;;;22.37;;
4835;SDS011;66719;51.226;6.902;2024-01-06T12:59:57;47.83;;;22.57;;
4835;SDS011;66719;51.226;6.902;2024-01-06T13:02:23;41.60;;;22.03;;
4835;SDS011;66719;51.226;6.902;2024-01-06T13:04:50;46.33;;;22.27;;
4835;SDS011;66719;51.226;6.902;2024-01-06T13:07:17;45.70;;;24.47;;
4835;SDS011;66719;51.226;6.902;2024-01-06T13:09:43;49.47;;;26.10;;
4835;SDS011;66719;51.226;6.902;2024-01-06T13:12:10;46.60;;;23.93;;
4835;SDS011;66719;51.226;6.902;2024-01-06T13:14:37;50.30;;;25.47;;
4835;SDS011;66719;51.226;6.902;2024-01-06T13:17:04;46.03;;;24.33;;
4835;SDS011;66719;51.226;6.902;2024-01-06T13:19:32;49.33;;;24.43;;
4835;SDS011;66719;51.226;6.902;2024-01-06T13:22:00;52.30;;;25.53;;
4835;SDS011;66719;51.226;6.902;2024-01-06T13:24:27;53.50;;;25.70;;
4835;SDS011;66719;51.226;6.902;2024-01-06T13:26:56;49.30;;;24.83;;
4835;SDS011;66719;51.226;6.902;2024-01-06T13:29:24;50.37;;;27.33;;
4835;SDS011;66719;51.226;6.902;2024-01-06T13:31:51;49.80;;;26.50;;
4835;SDS011;66719;51.226;6.902;2024-01-06T13:34:19;52.20;;;26.87;;
4835;SDS011;66719;51.226;6.902;2024-01-06T13:36:45;53.57;;;26.23;;
4835;SDS011;66719;51.226;6.902;2024-01-06T13:39:13;49.20;;;26.43;;
4835;SDS011;66719;51.226;6.902;2024-01-06T13:41:47;63.70;;;27.47;;
4835;SDS011;66719;51.226;6.902;2024-01-06T13:44:14;51.37;;;26.60;;
4835;SDS011;66719;51.226;6.902;2024-01-06T13:46:41;49.00;;;24.77;;
4835;SDS011;66719;51.226;6.902;2024-01-06T13:49:11;51.43;;;26.40;;
4835;SDS011;66719;51.226;6.902;2024-01-06T13:51:39;52.53;;;25.23;;
4835;SDS011;66719;51.226;6.902;2024-01-06T13:54:06;41.30;;;22.13;;
4835;SDS011;66719;51.226;6.902;2024-01-06T13:56:32;47.67;;;24.07;;
4835;SDS011;66719;51.226;6.902;2024-01-06T13:58:59;43.83;;;22.43;;
4835;SDS011;66719;51.226;6.902;2024-01-06T14:01:26;46.73;;;24.87;;
4835;SDS011;66719;51.226;6.902;2024-01-06T14:03:52;40.43;;;21.27;;
4835;SDS011;66719;51.226;6.902;2024-01-06T14:06:28;46.50;;;23.33;;
4835;SDS011;66719;51.226;6.902;2024-01-06T14:08:58;46.73;;;25.40;;
4835;SDS011;66719;51.226;6.902;2024-01-06T14:11:26;48.63;;;25.70;;
4835;SDS011;66719;51.226;6.902;2024-01-06T14:14:00;45.97;;;24.87;;
4835;SDS011;66719;51.226;6.902;2024-01-06T14:16:26;41.33;;;24.10;;
4835;SDS011;66719;51.226;6.902;2024-01-06T14:18:53;49.87;;;26.73;;
4835;SDS011;66719;51.226;6.902;2024-01-06T14:21:20;41.57;;;23.13;;
4835;SDS011;66719;51.226;6.902;2024-01-06T14:23:47;47.80;;;25.10;;
4835;SDS011;66719;51.226;6.902;2024-01-06T14:26:16;43.77;;;23.83;;
4835;SDS011;66719;51.226;6.902;2024-01-06T14:28:46;44.00;;;21.30;;
4835;SDS011;66719;51.226;6.902;2024-01-06T14:31:13;37.33;;;21.87;;
4835;SDS011;66719;51.226;6.902;2024-01-06T14:33:40;38.07;;;22.07;;
4835;SDS011;66719;51.226;6.902;2024-01-06T14:36:07;37.00;;;21.83;;
4835;SDS011;66719;51.226;6.902;2024-01-06T14:38:34;43.33;;;22.40;;
4835;SDS011;66719;51.226;6.902;2024-01-06T14:41:01;40.77;;;22.63;;